• Join FlightAware (Why Join?)
  • Login
  • US Flag 
11:37AM EDT


 

Airport Tracker/Info


-or-


 

Live Flight TrackerFlight Track Log ✈ SKW5564 ✈ 28-Jun-2013 ✈ KORD - KATL

Flight Track Log - Related Links

Times and Time Zones

All times are in EDT time to prevent confusion due to time zone crossing. See the SKW5564 flight status page for this flight to view local times or setup timezone preferences in your user account.

Time Position Orientation Groundspeed Altitude Reporting Facility
EDT Latitude Longitude Course Direction KTS MPH feet Rate Location/Type
01:00PM 41.6853 -87.7676 161° South  Level Estimated
01:01PM 41.5865 -87.7215 161° South  Level Estimated
01:02PM 41.4876 -87.6756 161° South  Level Estimated
01:03PM 41.3888 -87.6298 161° South  Level Estimated
01:04PM 41.2899 -87.5842 161° South  Level Estimated
01:05PM 41.1910 -87.5387 161° South  Level Estimated
01:06PM 41.0921 -87.4933 161° South  Level Estimated
01:07PM 40.9932 -87.4480 161° South  Level Estimated
01:08PM 40.8942 -87.4029 161° South  Level Estimated
01:09PM 40.7953 -87.3579 161° South  Level Estimated
01:10PM 40.6963 -87.3131 161° South  Level Estimated
01:11PM 40.5973 -87.2684 161° South  Level Estimated
01:12PM 40.4983 -87.2238 161° South  Level Estimated
01:13PM 40.3993 -87.1794 161° South  Level Estimated
01:14PM 40.3002 -87.1351 161° South  Level Estimated
01:15PM 40.2011 -87.0909 161° South  Level Estimated
01:16PM 40.1021 -87.0469 161° South  Level Estimated
01:17PM 40.0030 -87.0029 161° South  Level Estimated
01:18PM 39.9039 -86.9591 161° South  Level Estimated
01:19PM 39.8047 -86.9155 161° South  Level Estimated
01:20PM 39.7056 -86.8719 161° South  Level Estimated
01:21PM 39.6064 -86.8285 161° South  Level Estimated
01:22PM 39.5072 -86.7852 161° South  Level Estimated
01:23PM 39.4080 -86.7421 161° South  Level Estimated
01:24PM 39.3088 -86.6990 161° South  Level Estimated
01:25PM 39.2096 -86.6561 161° South  Level Estimated
01:26PM 39.1104 -86.6133 161° South  Level Estimated
01:27PM 39.0111 -86.5706 162° South  Level Estimated
01:28PM 38.9118 -86.5280 162° South  Level Estimated
01:29PM 38.8125 -86.4856 162° South  Level Estimated
01:30PM 38.7132 -86.4432 162° South  Level Estimated
01:31PM 38.6139 -86.4010 162° South  Level Estimated
01:32PM 38.5146 -86.3589 162° South  Level Estimated
01:33PM 38.4152 -86.3170 162° South  Level Estimated
01:34PM 38.3159 -86.2751 162° South  Level Estimated
01:35PM 38.2165 -86.2334 162° South  Level Estimated
01:36PM 38.1171 -86.1917 162° South  Level Estimated
01:37PM 38.0177 -86.1502 162° South  Level Estimated
01:38PM 37.9183 -86.1088 162° South  Level Estimated
01:39PM 37.8188 -86.0675 162° South  Level Estimated
01:40PM 37.7194 -86.0263 162° South  Level Estimated
01:41PM 37.6199 -85.9852 162° South  Level Estimated
01:42PM 37.5204 -85.9443 162° South  Level Estimated
01:43PM 37.4209 -85.9034 162° South  Level Estimated
01:44PM 37.3214 -85.8627 162° South  Level Estimated
01:45PM 37.2219 -85.8220 162° South  Level Estimated
01:46PM 37.1223 -85.7815 162° South  Level Estimated
01:47PM 37.0228 -85.7411 162° South  Level Estimated
01:48PM 36.9232 -85.7007 162° South  Level Estimated
01:49PM 36.8237 -85.6605 162° South  Level Estimated
01:50PM 36.7241 -85.6204 162° South  Level Estimated
01:51PM 36.6245 -85.5804 162° South  Level Estimated
01:52PM 36.5248 -85.5405 162° South  Level Estimated
01:53PM 36.4252 -85.5007 162° South  Level Estimated
01:54PM 36.3256 -85.4610 162° South  Level Estimated
01:55PM 36.2259 -85.4214 162° South  Level Estimated
01:56PM 36.1262 -85.3819 162° South  Level Estimated
01:57PM 36.0266 -85.3425 162° South  Level Estimated
01:58PM 35.9268 -85.3032 162° South  Level Estimated
01:59PM 35.8271 -85.2640 162° South  Level Estimated
02:00PM 35.7274 -85.2249 162° South  Level Estimated
02:01PM 35.6277 -85.1859 162° South  Level Estimated
02:02PM 35.5279 -85.1470 162° South  Level Estimated
02:03PM 35.4282 -85.1082 162° South  Level Estimated
02:04PM 35.3284 -85.0695 162° South  Level Estimated
02:05PM 35.2286 -85.0309 162° South  Level Estimated
02:06PM 35.1288 -84.9923 162° South  Level Estimated
02:07PM 35.0290 -84.9539 163° South  Level Estimated
02:08PM 34.9292 -84.9156 163° South  Level Estimated
02:09PM 34.8294 -84.8773 163° South  Level Estimated
02:10PM 34.7295 -84.8392 163° South  Level Estimated
02:11PM 34.6297 -84.8011 163° South  Level Estimated
02:12PM 34.5298 -84.7632 163° South  Level Estimated
02:13PM 34.4299 -84.7253 163° South  Level Estimated
02:14PM 34.3300 -84.6875 163° South  Level Estimated
02:15PM 34.2301 -84.6498 163° South  Level Estimated
02:16PM 34.1302 -84.6123 163° South  Level Estimated
02:17PM 34.0303 -84.5747 163° South  Level Estimated
02:18PM 33.9303 -84.5373 163° South  Level Estimated
02:19PM 33.8304 -84.5000 163° South  Level Estimated
02:20PM 33.7304 -84.4627 163° South  Level Estimated
02:21PM 33.6367 -84.4279 163° South  Level Estimated
02:22PM 33.6367 -84.4279 261° West  Level Estimated
02:23PM 33.6367 -84.4279 261° West  Level Estimated
02:24PM 33.6367 -84.4279 261° West  Level Estimated
02:25PM 33.6367 -84.4279 261° West  Level Estimated
02:26PM 33.6367 -84.4279 261° West  Level Estimated
02:27PM 33.6367 -84.4279 261° West  Level Estimated
02:28PM 33.6367 -84.4279 261° West  Level Estimated
02:29PM 33.6367 -84.4279 261° West  Level Estimated